createdAt,value
2019-01-20T00:01:47.334Z,18.77
2019-01-20T00:04:28.380Z,19.73
2019-01-20T00:07:04.686Z,19.12
2019-01-20T00:09:44.087Z,18.12
2019-01-20T00:12:23.408Z,16.12
2019-01-20T00:15:11.296Z,19.87
2019-01-20T00:17:48.570Z,18.48
2019-01-20T00:20:26.773Z,19.32
2019-01-20T00:23:12.339Z,19.82
2019-01-20T00:25:59.257Z,20.50
2019-01-20T00:28:34.032Z,19.95
2019-01-20T00:31:10.378Z,20.40
2019-01-20T00:33:51.357Z,24.23
2019-01-20T00:36:28.230Z,21.65
2019-01-20T00:39:09.709Z,22.90
2019-01-20T00:41:45.736Z,23.12
2019-01-20T00:44:21.217Z,24.65
2019-01-20T00:46:56.599Z,22.27
2019-01-20T00:49:32.429Z,18.60
2019-01-20T00:52:11.188Z,19.15
2019-01-20T00:54:50.068Z,16.07
2019-01-20T00:57:30.786Z,16.52
2019-01-20T01:00:11.688Z,17.30
2019-01-20T01:02:53.068Z,18.30
2019-01-20T01:05:30.668Z,17.75
2019-01-20T01:08:10.978Z,18.50
2019-01-20T01:10:47.714Z,20.20
2019-01-20T01:18:26.165Z,19.30
2019-01-20T01:21:08.799Z,22.10
2019-01-20T01:23:46.025Z,18.98
2019-01-20T01:26:21.304Z,20.02
2019-01-20T01:28:57.878Z,19.02
2019-01-20T01:31:32.719Z,21.75
2019-01-20T01:34:09.520Z,21.33
2019-01-20T01:36:49.784Z,20.45
2019-01-20T01:39:29.328Z,26.45
2019-01-20T01:42:05.428Z,21.75
2019-01-20T01:44:52.395Z,21.85
2019-01-20T01:47:27.330Z,18.85
2019-01-20T01:50:03.961Z,20.68
2019-01-20T01:52:41.367Z,18.27
2019-01-20T01:55:17.184Z,21.27
2019-01-20T01:57:55.350Z,18.40
2019-01-20T02:00:30.677Z,21.40
2019-01-20T02:06:07.562Z,22.85
2019-01-20T02:08:43.569Z,22.85
2019-01-20T02:11:20.279Z,21.27
2019-01-20T02:14:03.214Z,19.30
2019-01-20T02:16:40.510Z,19.73
2019-01-20T02:19:17.642Z,19.75
2019-01-20T02:22:03.752Z,20.68
2019-01-20T02:24:39.574Z,20.00
2019-01-20T02:27:16.226Z,22.30
2019-01-20T02:29:51.249Z,18.75
2019-01-20T02:32:26.282Z,20.97
2019-01-20T02:35:03.273Z,21.17
2019-01-20T02:37:38.710Z,19.52
2019-01-20T02:40:15.031Z,22.05
2019-01-20T02:42:52.125Z,22.67
2019-01-20T02:45:30.782Z,21.27
2019-01-20T02:48:06.129Z,20.60
2019-01-20T02:50:51.860Z,20.85
2019-01-20T02:53:27.338Z,20.65
2019-01-20T02:56:03.935Z,18.57
2019-01-20T02:58:44.620Z,21.02
2019-01-20T03:01:31.620Z,18.70
2019-01-20T03:04:13.852Z,20.62
2019-01-20T03:06:49.398Z,20.97
2019-01-20T03:09:24.772Z,20.65
2019-01-20T03:12:04.300Z,17.82
2019-01-20T03:14:39.878Z,20.35
2019-01-20T03:17:17.172Z,20.23
2019-01-20T03:19:53.823Z,20.95
2019-01-20T03:22:28.836Z,17.75
2019-01-20T03:28:00.397Z,18.32
2019-01-20T03:30:37.588Z,19.67
2019-01-20T03:33:13.202Z,19.77
2019-01-20T03:35:51.288Z,21.20
2019-01-20T03:38:25.995Z,19.02
2019-01-20T03:41:03.861Z,19.67
2019-01-20T03:43:39.067Z,18.35
2019-01-20T03:46:14.130Z,18.45
2019-01-20T03:48:49.561Z,19.67
2019-01-20T03:51:25.025Z,21.02
2019-01-20T03:54:01.171Z,20.48
2019-01-20T03:56:38.445Z,22.75
2019-01-20T03:59:19.088Z,22.05
2019-01-20T04:01:54.571Z,21.75
2019-01-20T04:04:31.051Z,21.30
2019-01-20T04:07:09.585Z,20.45
2019-01-20T04:09:44.662Z,21.30
2019-01-20T04:12:20.711Z,18.98
2019-01-20T04:14:56.401Z,20.88
2019-01-20T04:17:32.798Z,18.15
2019-01-20T04:20:14.337Z,22.17
2019-01-20T04:22:50.900Z,22.20
2019-01-20T04:25:29.122Z,20.97
2019-01-20T04:28:04.504Z,21.70
2019-01-20T04:30:40.622Z,18.02
2019-01-20T04:33:20.163Z,19.15
2019-01-20T04:35:57.425Z,20.00
2019-01-20T04:38:37.135Z,19.77
2019-01-20T04:41:18.158Z,21.50
2019-01-20T04:44:02.784Z,18.48
2019-01-20T04:46:40.670Z,20.90
2019-01-20T04:49:19.356Z,21.17
2019-01-20T04:51:55.801Z,22.27
2019-01-20T04:54:32.259Z,20.25
2019-01-20T04:57:08.461Z,18.67
2019-01-20T04:59:44.296Z,22.00
2019-01-20T05:02:20.576Z,21.55
2019-01-20T05:04:57.942Z,21.12
2019-01-20T05:07:36.688Z,19.77
2019-01-20T05:10:15.259Z,20.48
2019-01-20T05:12:51.008Z,22.10
2019-01-20T05:15:26.774Z,21.77
2019-01-20T05:18:03.355Z,21.48
2019-01-20T05:20:44.047Z,22.00
2019-01-20T05:23:19.624Z,22.87
2019-01-20T05:25:59.404Z,22.85
2019-01-20T05:28:34.019Z,22.02
2019-01-20T05:31:14.773Z,21.05
2019-01-20T05:33:50.318Z,23.12
2019-01-20T05:36:25.308Z,21.68
2019-01-20T05:39:04.234Z,22.35
2019-01-20T05:41:39.815Z,24.05
2019-01-20T05:44:15.109Z,24.05
2019-01-20T05:46:52.699Z,24.52
2019-01-20T05:49:28.026Z,24.18
2019-01-20T05:52:07.223Z,24.35
2019-01-20T05:54:44.084Z,25.30
2019-01-20T05:57:19.674Z,23.65
2019-01-20T05:59:59.134Z,22.27
2019-01-20T06:02:35.019Z,22.60
2019-01-20T06:05:11.384Z,23.70
2019-01-20T06:07:48.736Z,24.85
2019-01-20T06:10:24.812Z,24.82
2019-01-20T06:13:02.075Z,27.50
2019-01-20T06:15:49.996Z,25.97
2019-01-20T06:18:35.010Z,27.07
2019-01-20T06:21:12.542Z,24.30
2019-01-20T06:23:45.512Z,24.30
2019-01-20T06:26:20.972Z,23.45
2019-01-20T06:28:57.094Z,23.10
2019-01-20T06:31:32.309Z,24.10
2019-01-20T06:34:08.978Z,26.30
2019-01-20T06:36:45.965Z,24.27
2019-01-20T06:39:21.520Z,22.60
2019-01-20T06:42:00.903Z,23.70
2019-01-20T06:44:35.620Z,23.87
2019-01-20T06:47:16.718Z,24.60
2019-01-20T06:49:51.835Z,24.05
2019-01-20T06:52:28.094Z,21.35
2019-01-20T06:55:05.316Z,24.55
2019-01-20T06:57:45.817Z,25.45
2019-01-20T07:00:27.150Z,24.30
2019-01-20T07:03:02.787Z,26.60
2019-01-20T07:05:35.526Z,26.55
2019-01-20T07:08:13.843Z,23.30
2019-01-20T07:10:48.846Z,23.87
2019-01-20T07:13:23.702Z,24.07
2019-01-20T07:15:58.737Z,26.93
2019-01-20T07:18:34.716Z,27.70
2019-01-20T07:21:11.912Z,20.68
2019-01-20T07:23:46.531Z,23.62
2019-01-20T07:26:21.601Z,23.25
2019-01-20T07:28:56.372Z,25.02
2019-01-20T07:31:32.223Z,27.27
2019-01-20T07:34:09.377Z,25.65
2019-01-20T07:36:44.622Z,25.48
2019-01-20T07:39:20.863Z,28.35
2019-01-20T07:41:55.613Z,26.73
2019-01-20T07:44:31.442Z,29.55
2019-01-20T07:47:06.779Z,34.80
2019-01-20T07:49:39.644Z,40.25
2019-01-20T07:52:14.643Z,33.95
2019-01-20T07:54:48.045Z,31.30
2019-01-20T07:57:23.777Z,24.67
2019-01-20T07:59:59.300Z,25.72
2019-01-20T08:02:33.993Z,22.75
2019-01-20T08:05:08.078Z,25.62
2019-01-20T08:07:43.529Z,23.77
2019-01-20T08:10:20.103Z,27.93
2019-01-20T08:12:55.130Z,26.30
2019-01-20T08:15:30.308Z,26.85
2019-01-20T08:18:09.636Z,34.45
2019-01-20T08:20:42.753Z,31.02
2019-01-20T08:23:17.804Z,26.90
2019-01-20T08:25:53.434Z,22.70
2019-01-20T08:28:28.574Z,26.30
2019-01-20T08:31:04.169Z,25.25
2019-01-20T08:33:40.916Z,23.40
2019-01-20T08:36:17.174Z,24.65
2019-01-20T08:38:52.708Z,23.80
2019-01-20T08:41:28.046Z,23.47
2019-01-20T08:44:02.995Z,30.77
2019-01-20T08:46:44.876Z,29.02
2019-01-20T08:49:20.274Z,32.78
2019-01-20T08:51:58.080Z,32.53
2019-01-20T08:54:34.317Z,33.53
2019-01-20T08:57:09.975Z,31.85
2019-01-20T08:59:45.617Z,29.07
2019-01-20T09:02:23.472Z,27.62
2019-01-20T09:04:58.967Z,26.97
2019-01-20T09:07:33.925Z,25.45
2019-01-20T09:10:18.158Z,26.25
2019-01-20T09:13:01.193Z,25.90
2019-01-20T09:27:14.823Z,25.90
2019-01-20T09:30:02.594Z,27.45
2019-01-20T09:32:42.054Z,28.50
2019-01-20T09:35:28.469Z,26.48
2019-01-20T09:41:12.899Z,29.00
2019-01-20T09:43:57.757Z,28.65
2019-01-20T09:46:47.825Z,29.05
2019-01-20T09:55:28.542Z,25.55
2019-01-20T09:58:04.635Z,27.85
2019-01-20T10:00:52.843Z,29.25
2019-01-20T12:30:19.069Z,24.00
2019-01-20T12:33:05.952Z,20.30
2019-01-20T12:35:41.081Z,20.77
2019-01-20T12:38:24.343Z,20.02
2019-01-20T12:41:02.864Z,20.12
2019-01-20T12:43:41.807Z,17.57
2019-01-20T12:46:21.164Z,21.97
2019-01-20T12:54:57.485Z,14.98
2019-01-20T12:57:36.998Z,15.80
2019-01-20T13:42:58.572Z,18.27
2019-01-20T14:35:53.332Z,17.62
2019-01-20T14:38:36.769Z,22.93
2019-01-20T14:41:20.116Z,16.52
2019-01-20T14:47:02.851Z,16.35
2019-01-20T14:49:41.933Z,17.75
2019-01-20T14:52:16.678Z,16.90
2019-01-20T14:54:53.739Z,16.02
2019-01-20T14:57:28.979Z,18.42
2019-01-20T15:27:31.339Z,20.70
2019-01-20T16:28:08.477Z,24.75
2019-01-20T16:33:57.056Z,26.15
2019-01-20T17:34:19.227Z,30.20
2019-01-20T17:36:56.243Z,27.48
2019-01-20T17:39:45.659Z,29.52
2019-01-20T17:51:21.800Z,36.15
2019-01-20T17:54:01.070Z,35.98
2019-01-20T17:59:50.280Z,34.20
2019-01-20T18:02:44.458Z,31.80
2019-01-20T18:15:18.214Z,36.30
2019-01-20T18:21:12.259Z,36.28
2019-01-20T18:26:59.666Z,34.80
2019-01-20T18:37:46.551Z,32.48
2019-01-20T18:40:27.323Z,35.20
2019-01-20T18:43:10.638Z,35.85
2019-01-20T18:45:49.798Z,37.60
2019-01-20T19:12:36.092Z,33.90
2019-01-20T19:15:23.304Z,35.68
2019-01-20T19:18:05.380Z,35.33
2019-01-20T19:20:51.404Z,33.75
2019-01-20T19:23:33.053Z,33.58
2019-01-20T19:26:16.965Z,31.75
2019-01-20T19:28:54.576Z,31.20
2019-01-20T19:31:38.453Z,33.55
2019-01-20T19:46:29.191Z,33.35
2019-01-20T19:52:23.379Z,34.05
2019-01-20T20:04:18.764Z,33.90
2019-01-20T20:10:16.115Z,31.12
2019-01-20T20:52:09.183Z,36.90
2019-01-20T21:31:29.380Z,35.83
